Time;durP1;ratioP1;P1;durP2;ratioP2;P2;SDS_P1;SDS_P2;PMS_P1;PMS_P2;Temp;Humidity;BMP_temperature;BMP_pressure;BME280_temperature;BME280_humidity;BME280_pressure;Samples;Min_cycle;Max_cycle;Signal;HPM_P1;HPM_P2
2023/10/24 00:01:16;;;;;;;20.60;8.95;;;;;;;12.72;100.00;98823.16;12193860;19;20023;-80
2023/10/24 00:05:18;;;;;;;19.13;9.80;;;;;;;12.72;100.00;98798.28;12165169;19;20021;-79
2023/10/24 00:09:20;;;;;;;20.90;12.10;;;;;;;12.78;100.00;98780.53;12231865;19;20014;-80
2023/10/24 00:13:22;;;;;;;17.58;9.95;;;;;;;12.77;100.00;98789.97;12244816;19;20038;-82
2023/10/24 00:17:24;;;;;;;17.40;9.00;;;;;;;12.77;100.00;98795.47;12216706;19;20028;-81
2023/10/24 00:21:26;;;;;;;17.88;9.05;;;;;;;12.82;100.00;98813.13;12240659;19;20018;-80
2023/10/24 00:25:28;;;;;;;14.30;8.77;;;;;;;12.84;100.00;98813.69;12248450;19;20007;-81
2023/10/24 00:29:30;;;;;;;18.30;8.47;;;;;;;12.84;100.00;98808.16;12225759;19;19994;-81
2023/10/24 00:33:32;;;;;;;11.87;7.43;;;;;;;12.84;100.00;98816.44;12247397;19;20003;-81
2023/10/24 00:37:34;;;;;;;17.92;8.18;;;;;;;12.80;100.00;98821.72;12246046;19;20267;-81
2023/10/24 00:41:36;;;;;;;14.73;7.78;;;;;;;12.83;100.00;98809.28;12212782;19;20013;-81
2023/10/24 00:45:38;;;;;;;13.48;7.03;;;;;;;12.81;100.00;98812.31;12212756;19;20002;-81
2023/10/24 00:49:42;;;;;;;8.63;4.95;;;;;;;12.77;100.00;98806.53;12214390;19;20017;-80
2023/10/24 00:53:44;;;;;;;11.23;5.27;;;;;;;12.77;100.00;98806.53;12191768;19;20006;-81
2023/10/24 00:57:47;;;;;;;8.13;4.40;;;;;;;12.77;100.00;98801.00;12208762;19;20030;-81
2023/10/24 01:01:51;;;;;;;7.30;4.13;;;;;;;12.83;100.00;98804.56;12201403;19;20026;-81
2023/10/24 01:05:53;;;;;;;;;;;;;;;12.87;100.00;98822.22;12187367;19;20018;-81
2023/10/24 01:09:55;;;;;;;11.35;4.40;;;;;;;12.99;100.00;98802.47;12198292;19;19918;-80
2023/10/24 01:14:01;;;;;;;11.18;4.18;;;;;;;13.00;100.00;98782.84;12201571;19;20013;-81
2023/10/24 01:18:04;;;;;;;9.45;4.10;;;;;;;13.01;100.00;98775.38;12179937;19;20009;-81
2023/10/24 01:22:06;;;;;;;;;;;;;;;13.08;100.00;98777.78;12208669;19;20074;-81
2023/10/24 01:26:10;;;;;;;6.75;4.30;;;;;;;13.12;100.00;98785.22;12180609;19;19930;-81
2023/10/24 01:30:13;;;;;;;8.20;4.90;;;;;;;13.17;100.00;98793.44;12197510;19;20007;-80
2023/10/24 01:34:16;;;;;;;8.15;4.28;;;;;;;13.23;100.00;98789.50;12195858;19;20019;-81
2023/10/24 01:38:17;;;;;;;9.00;3.92;;;;;;;13.22;100.00;98796.19;12179509;19;21517;-80
2023/10/24 01:42:19;;;;;;;6.63;4.10;;;;;;;13.17;100.00;98800.94;12201621;19;20013;-79
2023/10/24 01:46:21;;;;;;;9.88;4.78;;;;;;;13.19;100.00;98802.28;12207443;19;20014;-80
2023/10/24 01:50:23;;;;;;;9.57;4.85;;;;;;;13.20;100.00;98812.22;12197868;19;20010;-79
2023/10/24 01:54:25;;;;;;;10.15;4.70;;;;;;;13.22;100.00;98809.19;12210189;19;20027;-82
2023/10/24 01:58:26;;;;;;;9.30;4.88;;;;;;;13.29;100.00;98806.09;12196027;19;20009;-79
2023/10/24 02:02:28;;;;;;;10.80;5.63;;;;;;;13.36;100.00;98795.53;12169132;19;20504;-79
2023/10/24 02:06:30;;;;;;;10.07;5.37;;;;;;;13.39;100.00;98754.25;12196420;19;20358;-79
2023/10/24 02:10:34;;;;;;;8.57;5.30;;;;;;;13.35;100.00;98760.66;12193955;19;20003;-80
2023/10/24 02:14:36;;;;;;;11.00;5.53;;;;;;;13.36;100.00;98776.16;12173342;19;21255;-79
2023/10/24 02:18:39;;;;;;;14.18;4.85;;;;;;;13.38;100.00;98755.34;12189151;19;20010;-81
2023/10/24 02:22:41;;;;;;;12.73;4.75;;;;;;;13.41;100.00;98770.56;12193757;19;20011;-79
2023/10/24 02:26:43;;;;;;;10.02;4.80;;;;;;;13.41;100.00;98765.88;12173536;19;20009;-79
2023/10/24 02:30:46;;;;;;;8.67;4.13;;;;;;;13.41;100.00;98773.31;12198911;19;20003;-78
2023/10/24 02:34:51;;;;;;;9.25;4.80;;;;;;;13.42;100.00;98756.44;12212414;19;20255;-79
2023/10/24 02:38:54;;;;;;;12.07;5.43;;;;;;;13.39;100.00;98753.44;12173071;19;20007;-79
2023/10/24 02:42:56;;;;;;;11.98;4.88;;;;;;;13.36;100.00;98756.78;12192697;19;20015;-79
2023/10/24 02:46:58;;;;;;;9.75;4.60;;;;;;;13.33;100.00;98774.81;12189662;19;20011;-79
2023/10/24 02:51:00;;;;;;;7.47;4.40;;;;;;;13.32;100.00;98770.38;12168897;19;20026;-80
2023/10/24 02:55:03;;;;;;;7.82;4.10;;;;;;;13.34;100.00;98773.69;12190017;19;20003;-80
2023/10/24 02:59:05;;;;;;;7.93;4.68;;;;;;;13.34;100.00;98776.44;12182459;19;20007;-80
2023/10/24 03:03:07;;;;;;;10.80;4.87;;;;;;;13.33;100.00;98773.97;12158273;19;20009;-79
2023/10/24 03:07:10;;;;;;;8.10;4.15;;;;;;;13.31;100.00;98773.44;12182052;19;20014;-79
2023/10/24 03:11:21;;;;;;;10.90;4.50;;;;;;;13.33;100.00;98772.03;12158666;19;20014;-79
2023/10/24 03:15:23;;;;;;;11.93;5.03;;;;;;;13.34;100.00;98775.63;12191517;19;20263;-79
2023/10/24 03:19:27;;;;;;;9.48;4.68;;;;;;;13.32;100.00;98777.84;12189211;19;20106;-79
2023/10/24 03:23:29;;;;;;;11.10;4.38;;;;;;;13.34;100.00;98776.44;12175265;19;20552;-80
2023/10/24 03:27:32;;;;;;;10.40;4.85;;;;;;;13.36;100.00;98795.53;12201218;19;20480;-80
2023/10/24 03:31:36;;;;;;;9.27;4.50;;;;;;;13.43;100.00;98782.16;12203134;19;20021;-79
2023/10/24 03:35:38;;;;;;;8.73;4.70;;;;;;;13.50;100.00;98790.09;12177406;19;20003;-80
2023/10/24 03:39:40;;;;;;;8.80;4.55;;;;;;;13.54;100.00;98785.66;12186847;19;20002;-80
2023/10/24 03:43:48;;;;;;;8.70;5.00;;;;;;;13.54;100.00;98789.25;12186522;19;21225;-79
2023/10/24 03:48:05;;;;;;;9.07;4.60;;;;;;;13.51;100.00;98783.47;12162606;19;20010;-80
2023/10/24 03:52:07;;;;;;;9.13;4.32;;;;;;;13.52;100.00;98772.09;12180279;19;20022;-80
2023/10/24 03:56:11;;;;;;;7.40;4.10;;;;;;;13.53;100.00;98782.03;12164408;19;20011;-80
2023/10/24 04:00:13;;;;;;;9.10;5.20;;;;;;;13.54;100.00;98791.19;12189806;19;20055;-80
2023/10/24 04:04:15;;;;;;;7.70;4.40;;;;;;;13.54;100.00;98778.16;12197177;19;20014;-79
2023/10/24 04:08:17;;;;;;;6.00;3.13;;;;;;;13.57;100.00;98780.34;12173075;19;20018;-80
2023/10/24 04:12:19;;;;;;;12.60;4.95;;;;;;;13.63;100.00;98795.78;12192044;19;20016;-79
2023/10/24 04:16:22;;;;;;;10.70;5.13;;;;;;;13.64;100.00;98816.78;12191224;19;20517;-79
2023/10/24 04:20:25;;;;;;;12.32;5.20;;;;;;;13.68;100.00;98812.34;12176166;19;20046;-80
2023/10/24 04:24:28;;;;;;;9.35;5.40;;;;;;;13.71;100.00;98801.75;12196069;19;20852;-80
2023/10/24 04:28:29;;;;;;;10.23;5.38;;;;;;;13.75;100.00;98814.75;12192425;19;20027;-79
2023/10/24 04:32:31;;;;;;;10.63;6.37;;;;;;;13.81;100.00;98796.94;12175116;19;20367;-79
2023/10/24 04:36:33;;;;;;;11.88;5.93;;;;;;;13.80;100.00;98800.00;12193641;19;20010;-80
2023/10/24 04:40:39;;;;;;;12.55;6.47;;;;;;;13.76;100.00;98804.47;12194051;19;20010;-79
2023/10/24 04:44:41;;;;;;;13.55;5.72;;;;;;;13.79;100.00;98787.28;12173797;19;20018;-79
2023/10/24 04:48:43;;;;;;;10.75;5.70;;;;;;;13.80;100.00;98773.16;12194556;19;20007;-79
2023/10/24 04:52:45;;;;;;;17.48;6.70;;;;;;;13.79;100.00;98765.94;12192992;19;20007;-79
2023/10/24 04:56:48;;;;;;;9.57;6.10;;;;;;;13.79;100.00;98768.72;12173110;19;20034;-79
2023/10/24 05:00:50;;;;;;;13.88;6.70;;;;;;;13.77;100.00;98770.97;12191098;19;20082;-79
2023/10/24 05:04:52;;;;;;;12.40;6.68;;;;;;;13.79;100.00;98767.91;12193948;19;20109;-80
2023/10/24 05:08:55;;;;;;;14.70;6.60;;;;;;;13.78;100.00;98741.34;12175149;19;20006;-80
2023/10/24 05:12:57;;;;;;;;;;;;;;;13.70;100.00;98730.91;12199518;19;20488;-80
2023/10/24 05:16:58;;;;;;;12.52;6.50;;;;;;;13.65;100.00;98726.25;12193334;19;19922;-79
2023/10/24 05:21:00;;;;;;;9.27;5.90;;;;;;;13.61;100.00;98714.97;12169880;19;20029;-80
2023/10/24 05:25:02;;;;;;;15.00;7.25;;;;;;;13.60;100.00;98695.91;12192105;19;20006;-80
2023/10/24 05:29:04;;;;;;;15.13;7.47;;;;;;;13.58;100.00;98684.28;12191077;19;20019;-80
2023/10/24 05:33:07;;;;;;;12.20;7.53;;;;;;;13.58;100.00;98681.53;12172979;19;20034;-80
2023/10/24 05:37:09;;;;;;;14.60;8.27;;;;;;;13.56;100.00;98690.09;12189199;19;20607;-80
2023/10/24 05:41:11;;;;;;;13.87;8.47;;;;;;;13.53;100.00;98684.34;12169531;19;20028;-79
2023/10/24 05:45:13;;;;;;;13.68;8.75;;;;;;;13.48;100.00;98682.47;12189962;19;20010;-80
2023/10/24 05:49:15;;;;;;;12.67;8.20;;;;;;;13.45;100.00;98694.97;12189363;19;20034;-79
2023/10/24 05:53:17;;;;;;;18.83;8.63;;;;;;;13.43;100.00;98694.44;12168323;19;20015;-79
2023/10/24 05:57:19;;;;;;;15.95;8.60;;;;;;;13.39;100.00;98712.75;12190194;19;20078;-80
2023/10/24 06:01:22;;;;;;;15.57;7.70;;;;;;;13.38;100.00;98713.03;12188220;19;20003;-79
2023/10/24 06:05:24;;;;;;;;;;;;;;;13.39;100.00;98720.25;12168184;19;20916;-80
2023/10/24 06:09:26;;;;;;;15.20;6.72;;;;;;;13.38;100.00;98721.34;12188916;19;20008;-79
2023/10/24 06:13:28;;;;;;;16.00;7.72;;;;;;;13.41;100.00;98715.22;12192135;19;20011;-80
2023/10/24 06:17:30;;;;;;;12.93;7.50;;;;;;;13.42;100.00;98717.69;12160856;19;20019;-79
2023/10/24 06:21:32;;;;;;;15.23;7.28;;;;;;;13.41;100.00;98723.50;12179595;19;20259;-79
2023/10/24 06:25:38;;;;;;;17.88;9.40;;;;;;;13.41;100.00;98734.59;12187738;19;20006;-79
2023/10/24 06:29:40;;;;;;;18.42;9.50;;;;;;;13.43;100.00;98735.13;12164543;19;20002;-79
2023/10/24 06:33:42;;;;;;;17.77;9.32;;;;;;;13.47;100.00;98732.56;12191259;19;20014;-79
2023/10/24 06:37:45;;;;;;;18.05;9.27;;;;;;;13.49;100.00;98749.72;12193058;19;20015;-80
2023/10/24 06:41:46;;;;;;;16.90;8.97;;;;;;;13.49;100.00;98767.16;12165022;19;20007;-80
2023/10/24 06:45:55;;;;;;;15.93;8.65;;;;;;;13.54;100.00;98752.44;12193576;19;20024;-80
2023/10/24 06:49:57;;;;;;;19.33;9.15;;;;;;;13.55;100.00;98752.13;12188137;19;20022;-80
2023/10/24 06:53:59;;;;;;;17.92;8.75;;;;;;;13.55;100.00;98749.34;12164258;19;20006;-80
2023/10/24 06:58:03;;;;;;;16.55;8.40;;;;;;;13.54;100.00;98742.19;12185756;19;21565;-80
2023/10/24 07:02:05;;;;;;;16.50;8.25;;;;;;;13.57;100.00;98736.06;12188425;19;20002;-80
2023/10/24 07:06:10;;;;;;;18.90;8.73;;;;;;;13.62;100.00;98741.53;12163512;19;20006;-79
2023/10/24 07:10:12;;;;;;;17.15;8.50;;;;;;;13.63;100.00;98734.88;12183011;19;20003;-78
2023/10/24 07:14:14;;;;;;;20.20;9.87;;;;;;;13.62;100.00;98736.00;12164499;19;20579;-79
2023/10/24 07:18:16;;;;;;;15.68;9.45;;;;;;;13.63;100.00;98734.88;12177006;19;20017;-79
2023/10/24 07:22:17;;;;;;;17.80;9.57;;;;;;;13.70;100.00;98730.91;12176228;19;20026;-80
2023/10/24 07:26:20;;;;;;;19.25;8.85;;;;;;;13.71;100.00;98738.91;12150940;19;20389;-79
2023/10/24 07:30:22;;;;;;;18.97;10.43;;;;;;;13.67;100.00;98741.44;12190131;19;20051;-79
2023/10/24 07:34:25;;;;;;;19.15;10.05;;;;;;;13.73;100.00;98730.31;12187220;19;20058;-80
2023/10/24 07:38:44;;;;;;;21.17;10.40;;;;;;;13.75;100.00;98719.78;12172103;19;21290;-80
2023/10/24 07:42:51;;;;;;;17.65;9.70;;;;;;;13.74;100.00;98718.13;12200942;19;20006;-80
2023/10/24 07:46:52;;;;;;;20.83;10.88;;;;;;;13.77;100.00;98717.53;12203267;19;20010;-81
2023/10/24 07:50:56;;;;;;;18.37;11.07;;;;;;;13.79;100.00;98706.97;12181986;19;20034;-81
2023/10/24 07:54:58;;;;;;;20.63;11.00;;;;;;;13.77;100.00;98712.84;12197671;19;20554;-81
2023/10/24 07:59:00;;;;;;;19.92;10.93;;;;;;;13.76;100.00;98710.34;12201984;19;20030;-81
2023/10/24 08:03:02;;;;;;;22.20;10.80;;;;;;;13.79;100.00;98695.91;12187237;19;20086;-82
2023/10/24 08:07:04;;;;;;;;;;;;;;;13.79;100.00;98690.38;12213483;19;20002;-81
2023/10/24 08:11:06;;;;;;;18.95;10.27;;;;;;;13.81;100.00;98721.38;12211351;19;19914;-81
2023/10/24 08:15:09;;;;;;;24.27;10.65;;;;;;;13.82;100.00;98731.31;12213599;19;20096;-81
2023/10/24 08:19:11;;;;;;;22.00;11.65;;;;;;;13.85;100.00;98742.59;12211382;19;20057;-81
2023/10/24 08:23:13;;;;;;;19.13;11.57;;;;;;;13.89;100.00;98748.38;12181882;19;20462;-81
2023/10/24 08:27:15;;;;;;;21.30;12.20;;;;;;;13.92;100.00;98747.81;12199299;19;20067;-82
2023/10/24 08:31:17;;;;;;;23.70;11.53;;;;;;;13.96;100.00;98748.84;12197453;19;20334;-82
2023/10/24 08:35:19;;;;;;;19.83;11.47;;;;;;;13.99;100.00;98748.25;12176956;19;20003;-83
2023/10/24 08:39:23;;;;;;;21.60;12.23;;;;;;;14.01;100.00;98751.53;12189177;19;19999;-83
2023/10/24 08:43:26;;;;;;;22.10;12.38;;;;;;;14.05;100.00;98754.53;12191070;19;20002;-82
2023/10/24 08:47:31;;;;;;;27.15;12.95;;;;;;;14.08;100.00;98763.06;12185489;19;20023;-82
2023/10/24 08:51:33;;;;;;;22.50;12.48;;;;;;;14.09;100.00;98761.13;12200535;19;20007;-81
2023/10/24 08:55:35;;;;;;;24.00;13.43;;;;;;;14.08;100.00;98767.78;12202543;19;20006;-81
2023/10/24 08:59:39;;;;;;;24.95;13.45;;;;;;;14.06;100.00;98761.72;12173765;19;20013;-81
2023/10/24 09:03:43;;;;;;;24.92;13.60;;;;;;;14.06;100.00;98764.47;12217682;19;19999;-83
2023/10/24 09:07:45;;;;;;;28.25;13.02;;;;;;;14.09;100.00;98752.81;12209621;19;20350;-82
2023/10/24 09:11:55;;;;;;;25.50;13.70;;;;;;;14.11;100.00;98751.38;12181430;19;20013;-82
2023/10/24 09:16:05;;;;;;;29.80;13.90;;;;;;;14.19;100.00;98746.28;12201238;19;20038;-82
2023/10/24 09:20:08;;;;;;;23.63;11.80;;;;;;;14.17;100.00;98731.94;12177190;19;20027;-81
2023/10/24 09:24:14;;;;;;;22.60;11.85;;;;;;;14.17;100.00;98741.06;12201757;19;20010;-81
2023/10/24 09:28:18;;;;;;;23.92;11.77;;;;;;;14.22;100.00;98729.06;12202135;19;20006;-81
2023/10/24 09:32:21;;;;;;;22.15;11.48;;;;;;;14.26;100.00;98721.81;12182897;19;20021;-82
2023/10/24 09:36:26;;;;;;;15.33;9.73;;;;;;;14.25;100.00;98707.16;12209295;19;20030;-84
2023/10/24 09:40:39;;;;;;;17.10;9.00;;;;;;;14.30;100.00;98709.81;12203650;19;20123;-84
2023/10/24 09:44:41;;;;;;;15.52;9.07;;;;;;;14.38;100.00;98705.53;12186356;19;20010;-84
2023/10/24 09:48:43;;;;;;;17.23;8.43;;;;;;;14.43;100.00;98708.25;12207075;19;20088;-83
2023/10/24 09:52:46;;;;;;;15.50;8.00;;;;;;;14.49;100.00;98714.53;12205261;19;21130;-83
2023/10/24 09:56:49;;;;;;;14.40;9.00;;;;;;;14.56;100.00;98707.50;12180920;19;20476;-81
2023/10/24 10:00:52;;;;;;;15.48;8.93;;;;;;;14.59;100.00;98698.56;12207361;19;19998;-81
2023/10/24 10:04:54;;;;;;;15.98;7.88;;;;;;;14.59;100.00;98695.78;12203222;19;20002;-84
2023/10/24 10:08:58;;;;;;;18.85;8.45;;;;;;;14.64;100.00;98694.91;12184260;19;20014;-82
2023/10/24 10:13:05;;;;;;;11.63;7.57;;;;;;;14.65;100.00;98701.25;12204903;19;20806;-82
2023/10/24 10:17:35;;;;;;;13.60;7.53;;;;;;;14.68;100.00;98686.78;12182834;19;20011;-82
2023/10/24 10:21:49;;;;;;;12.75;7.38;;;;;;;14.71;100.00;98683.41;12205455;19;20547;-83
2023/10/24 10:26:01;;;;;;;15.00;7.30;;;;;;;14.71;100.00;98681.44;12208852;19;20039;-84
2023/10/24 10:30:24;;;;;;;11.70;7.60;;;;;;;14.74;100.00;98668.94;12181946;19;20006;-83
2023/10/24 10:34:36;;;;;;;10.93;7.13;;;;;;;14.73;100.00;98672.84;12205187;19;20011;-83
2023/10/24 10:38:47;;;;;;;10.10;6.70;;;;;;;14.74;100.00;98671.69;12180813;19;20082;-84
2023/10/24 10:42:50;;;;;;;11.30;6.57;;;;;;;14.79;100.00;98663.28;12202956;19;20019;-82
2023/10/24 10:46:59;;;;;;;14.32;7.18;;;;;;;14.81;100.00;98661.03;12229445;19;20007;-82
2023/10/24 10:51:04;;;;;;;13.32;7.47;;;;;;;14.81;100.00;98672.13;12187240;19;20094;-81
2023/10/24 10:55:31;;;;;;;11.05;6.65;;;;;;;14.86;100.00;98660.94;12214658;19;20027;-82
2023/10/24 11:00:00;;;;;;;12.95;7.80;;;;;;;14.89;100.00;98653.94;12187808;19;20003;-83
2023/10/24 11:04:13;;;;;;;12.70;7.43;;;;;;;14.95;100.00;98653.53;12210899;19;20035;-81
2023/10/24 11:08:19;;;;;;;14.82;7.75;;;;;;;15.05;100.00;98660.88;12193952;19;20018;-82
2023/10/24 11:12:21;;;;;;;10.90;6.60;;;;;;;15.16;100.00;98647.59;12217198;19;20006;-84
2023/10/24 11:16:25;;;;;;;11.10;6.03;;;;;;;15.16;100.00;98651.19;12218948;19;20026;-84
2023/10/24 11:20:42;;;;;;;7.30;5.43;;;;;;;15.17;100.00;98643.69;12198609;19;20014;-83
2023/10/24 11:24:45;;;;;;;10.87;5.43;;;;;;;15.15;100.00;98635.69;12211527;19;20006;-84
2023/10/24 11:28:51;;;;;;;7.32;4.10;;;;;;;15.19;100.00;98631.16;12202484;19;20527;-83
2023/10/24 11:32:57;;;;;;;9.80;4.53;;;;;;;15.19;100.00;98622.81;12182713;19;20034;-84
2023/10/24 11:36:59;;;;;;;8.10;4.40;;;;;;;15.17;100.00;98627.88;12197306;19;20010;-84
2023/10/24 11:41:04;;;;;;;9.50;4.18;;;;;;;15.16;100.00;98628.16;12200258;19;20013;-85
2023/10/24 11:45:09;;;;;;;7.50;3.90;;;;;;;15.15;100.00;98634.88;12184292;19;20014;-82
2023/10/24 11:49:11;;;;;;;9.35;3.47;;;;;;;15.11;100.00;98631.03;12198739;19;20010;-82
2023/10/24 11:53:21;;;;;;;7.25;3.80;;;;;;;15.06;100.00;98620.88;12177444;19;20003;-83
2023/10/24 11:57:25;;;;;;;9.35;3.75;;;;;;;15.09;100.00;98625.00;12201052;19;20035;-83
2023/10/24 12:01:33;;;;;;;4.15;2.70;;;;;;;15.12;100.00;98618.84;12200497;19;21641;-81
2023/10/24 12:05:36;;;;;;;5.72;2.95;;;;;;;15.11;100.00;98619.94;12180272;19;20038;-84
2023/10/24 12:09:38;;;;;;;5.75;3.38;;;;;;;15.05;100.00;98616.47;12197198;19;20030;-82
2023/10/24 12:13:41;;;;;;;6.28;3.22;;;;;;;15.02;100.00;98614.28;12198429;19;20450;-81
2023/10/24 12:17:44;;;;;;;5.30;3.10;;;;;;;15.03;100.00;98611.22;12185842;19;20014;-82
2023/10/24 12:21:47;;;;;;;6.50;2.90;;;;;;;15.00;100.00;98606.28;12216864;19;20098;-82
2023/10/24 12:25:50;;;;;;;5.55;3.22;;;;;;;15.03;100.00;98599.31;12216433;19;20002;-83
2023/10/24 12:29:52;;;;;;;6.55;3.55;;;;;;;15.17;100.00;98585.41;12189870;19;20022;-84
2023/10/24 12:33:54;;;;;;;7.90;3.25;;;;;;;15.34;100.00;98590.34;12209453;19;20007;-84
2023/10/24 12:37:56;;;;;;;6.88;4.10;;;;;;;15.36;100.00;98605.53;12208346;19;20014;-81
2023/10/24 12:41:58;;;;;;;6.20;3.50;;;;;;;15.28;100.00;98604.31;12186348;19;20019;-83
2023/10/24 12:46:01;;;;;;;5.85;3.70;;;;;;;15.21;100.00;98605.88;12210774;19;20011;-82
2023/10/24 12:50:03;;;;;;;7.15;4.55;;;;;;;15.15;100.00;98596.03;12210806;19;20010;-81
2023/10/24 12:54:06;;;;;;;9.60;4.78;;;;;;;15.17;100.00;98602.91;12191070;19;20010;-84
2023/10/24 12:58:07;;;;;;;8.20;4.93;;;;;;;15.25;100.00;98601.34;12206555;19;20009;-83
2023/10/24 13:02:09;;;;;;;7.33;5.23;;;;;;;15.50;100.00;98591.66;12185881;19;20003;-84
2023/10/24 13:06:13;;;;;;;10.05;6.07;;;;;;;15.68;100.00;98592.66;12214593;19;20009;-82
2023/10/24 13:10:15;;;;;;;;;;;;;;;15.69;100.00;98577.63;12213035;19;20010;-81
2023/10/24 13:14:18;;;;;;;10.25;6.93;;;;;;;15.61;100.00;98578.34;12196812;19;19914;-82
2023/10/24 13:18:19;;;;;;;11.33;7.20;;;;;;;15.53;100.00;98571.59;12211634;19;20005;-83
2023/10/24 13:22:21;;;;;;;13.30;8.17;;;;;;;15.52;100.00;98577.44;12212544;19;20030;-82
2023/10/24 13:26:23;;;;;;;14.67;8.60;;;;;;;15.48;100.00;98572.50;12193551;19;20010;-83
2023/10/24 13:30:25;;;;;;;17.33;10.38;;;;;;;15.44;100.00;98573.47;12206733;19;19998;-81
2023/10/24 13:34:41;;;;;;;19.30;10.13;;;;;;;15.60;100.00;98566.41;12211047;19;20070;-82
2023/10/24 13:38:46;;;;;;;16.80;10.77;;;;;;;15.87;100.00;98556.38;12187503;19;20416;-81
2023/10/24 13:42:50;;;;;;;12.95;8.85;;;;;;;16.11;100.00;98551.31;12204089;19;20006;-83
2023/10/24 13:46:53;;;;;;;14.20;9.60;;;;;;;16.27;100.00;98560.09;12208393;19;20007;-82
2023/10/24 13:50:58;;;;;;;14.50;8.77;;;;;;;16.20;100.00;98561.66;12185894;19;20007;-80
2023/10/24 13:54:59;;;;;;;15.18;10.10;;;;;;;16.08;100.00;98551.94;12200421;19;20003;-82
2023/10/24 13:59:03;;;;;;;14.88;9.25;;;;;;;16.05;100.00;98549.78;12194782;19;20003;-81
2023/10/24 14:03:05;;;;;;;12.37;8.17;;;;;;;16.03;100.00;98542.91;12178518;19;20002;-84
2023/10/24 14:07:09;;;;;;;12.07;7.95;;;;;;;16.02;100.00;98538.50;12201680;19;20445;-77
2023/10/24 14:11:11;;;;;;;12.30;8.50;;;;;;;16.08;100.00;98534.44;12179412;19;20026;-80
2023/10/24 14:15:12;;;;;;;9.73;6.77;;;;;;;15.97;100.00;98527.50;12196544;19;20010;-82
2023/10/24 14:19:14;;;;;;;11.02;7.32;;;;;;;15.98;100.00;98524.44;12201744;19;20042;-83
2023/10/24 14:23:16;;;;;;;11.65;6.72;;;;;;;15.95;100.00;98520.31;12184372;19;20010;-82
2023/10/24 14:27:18;;;;;;;9.23;7.00;;;;;;;15.93;100.00;98530.09;12202326;19;20023;-80
2023/10/24 14:31:21;;;;;;;9.23;6.65;;;;;;;15.94;100.00;98529.81;12203711;19;21155;-81
2023/10/24 14:35:24;;;;;;;9.65;6.88;;;;;;;15.96;100.00;98526.69;12179649;19;20011;-81
2023/10/24 14:39:29;;;;;;;10.82;7.22;;;;;;;15.84;100.00;98532.81;12200720;19;20007;-81
2023/10/24 14:43:32;;;;;;;13.63;7.82;;;;;;;15.69;100.00;98531.25;12197149;19;20007;-81
2023/10/24 14:47:34;;;;;;;12.90;7.93;;;;;;;15.54;100.00;98537.13;12178994;19;20018;-81
2023/10/24 14:51:37;;;;;;;;;;;;;;;15.39;100.00;98534.72;12201519;19;20033;-80
2023/10/24 14:55:40;;;;;;;;;;;;;;;15.27;100.00;98532.47;12201376;19;19948;-81
2023/10/24 14:59:43;;;;;;;19.42;10.00;;;;;;;15.12;100.00;98535.59;12182821;19;19907;-83
2023/10/24 15:03:44;;;;;;;15.43;10.30;;;;;;;14.95;100.00;98537.03;12209742;19;21125;-84
2023/10/24 15:07:47;;;;;;;19.53;11.33;;;;;;;14.87;100.00;98551.63;12192091;19;20006;-82
2023/10/24 15:11:50;;;;;;;22.13;11.30;;;;;;;14.78;100.00;98564.56;12163231;19;20083;-82
2023/10/24 15:15:51;;;;;;;;;;;;;;;14.71;100.00;98555.84;12176938;19;20010;-82
2023/10/24 15:19:54;;;;;;;12.95;7.78;;;;;;;14.72;100.00;98549.16;12182477;19;19906;-83
2023/10/24 15:23:58;;;;;;;12.57;7.03;;;;;;;14.82;100.00;98562.84;12162816;19;20024;-83
2023/10/24 15:28:01;;;;;;;7.47;4.30;;;;;;;14.82;100.00;98547.03;12203309;19;20025;-83
2023/10/24 15:32:09;;;;;;;7.75;5.00;;;;;;;14.76;100.00;98542.72;12198800;19;20091;-83
2023/10/24 15:36:12;;;;;;;8.40;4.72;;;;;;;14.69;100.00;98544.25;12171797;19;20002;-84
2023/10/24 15:40:13;;;;;;;12.93;5.53;;;;;;;14.63;100.00;98528.84;12196073;19;20006;-83
2023/10/24 15:44:16;;;;;;;7.00;4.78;;;;;;;14.61;100.00;98542.22;12180457;19;20003;-84
2023/10/24 15:48:18;;;;;;;8.95;5.53;;;;;;;14.60;100.00;98541.38;12200974;19;20010;-82
2023/10/24 15:52:20;;;;;;;10.15;5.65;;;;;;;14.59;100.00;98546.09;12200765;19;20017;-84
2023/10/24 15:56:23;;;;;;;10.90;6.65;;;;;;;14.59;100.00;98548.88;12186727;19;20005;-83
2023/10/24 16:00:27;;;;;;;12.32;6.65;;;;;;;14.52;100.00;98556.78;12211804;19;20793;-84
2023/10/24 16:04:29;;;;;;;14.50;7.55;;;;;;;14.46;100.00;98546.88;12213313;19;20003;-84
2023/10/24 16:08:32;;;;;;;;;;;;;;;14.46;100.00;98557.97;12184484;19;20017;-81
2023/10/24 16:12:34;;;;;;;12.63;7.05;;;;;;;14.46;100.00;98541.34;12205660;19;19924;-83
2023/10/24 16:16:36;;;;;;;13.03;7.97;;;;;;;14.46;100.00;98546.88;12214526;19;20007;-82
2023/10/24 16:20:38;;;;;;;14.63;8.13;;;;;;;14.44;100.00;98551.09;12182339;19;20050;-82
2023/10/24 16:24:41;;;;;;;16.67;8.35;;;;;;;14.41;100.00;98549.75;12205810;19;20029;-82
2023/10/24 16:28:43;;;;;;;14.40;7.75;;;;;;;14.41;100.00;98555.28;12202234;19;20014;-82
2023/10/24 16:32:45;;;;;;;14.45;8.45;;;;;;;14.39;100.00;98556.72;12183087;19;20405;-81
2023/10/24 16:36:47;;;;;;;15.00;7.97;;;;;;;14.36;100.00;98569.22;12202683;19;20469;-80
2023/10/24 16:40:49;;;;;;;12.93;8.17;;;;;;;14.31;100.00;98572.94;12203015;19;20626;-82
2023/10/24 16:44:52;;;;;;;20.27;9.07;;;;;;;14.30;100.00;98578.75;12179886;19;20412;-82
2023/10/24 16:48:54;;;;;;;14.85;6.80;;;;;;;14.26;100.00;98588.81;12200996;19;20070;-81
2023/10/24 16:52:56;;;;;;;10.43;6.38;;;;;;;14.22;100.00;98590.53;12202619;19;20086;-82
2023/10/24 16:56:58;;;;;;;10.38;6.28;;;;;;;14.14;100.00;98592.06;12179966;19;20009;-80
2023/10/24 17:00:59;;;;;;;9.03;6.00;;;;;;;14.08;100.00;98593.28;12199603;19;20051;-81
2023/10/24 17:05:02;;;;;;;12.03;5.07;;;;;;;13.96;100.00;98590.16;12206536;19;20003;-80
2023/10/24 17:09:07;;;;;;;;;;;;;;;13.77;100.00;98601.25;12180646;19;20006;-81
2023/10/24 17:13:09;;;;;;;7.82;4.63;;;;;;;13.62;100.00;98603.13;12199701;19;19978;-80
2023/10/24 17:17:11;;;;;;;8.57;4.70;;;;;;;13.44;100.00;98610.31;12038289;19;2749841;-80
2023/10/24 17:21:13;;;;;;;9.70;5.13;;;;;;;13.31;100.00;98616.56;12207698;19;20006;-80
2023/10/24 17:25:16;;;;;;;11.02;4.70;;;;;;;13.16;100.00;98625.03;12214826;19;20006;-80
2023/10/24 17:29:18;;;;;;;11.73;5.25;;;;;;;13.03;100.00;98614.66;12183282;19;20011;-80
2023/10/24 17:33:20;;;;;;;12.35;5.90;;;;;;;12.90;100.00;98608.75;12203941;19;20059;-80
2023/10/24 17:37:22;;;;;;;8.37;5.20;;;;;;;12.78;100.00;98611.91;12205675;19;20010;-80
2023/10/24 17:41:24;;;;;;;14.27;6.30;;;;;;;12.70;100.00;98611.72;12182146;19;20002;-80
2023/10/24 17:45:26;;;;;;;14.17;7.87;;;;;;;12.62;100.00;98615.97;12209755;19;20014;-82
2023/10/24 17:49:29;;;;;;;15.98;7.53;;;;;;;12.54;100.00;98611.91;12201898;19;20048;-80
2023/10/24 17:53:31;;;;;;;13.48;6.07;;;;;;;12.43;100.00;98615.91;12182533;19;20003;-83
2023/10/24 17:57:32;;;;;;;11.35;5.60;;;;;;;12.36;100.00;98623.69;12203692;19;21515;-80
2023/10/24 18:01:35;;;;;;;40.10;7.50;;;;;;;12.29;100.00;98610.22;12202247;19;20003;-82
2023/10/24 18:05:37;;;;;;;10.70;4.75;;;;;;;12.22;100.00;98612.47;12184656;19;20010;-81
2023/10/24 18:09:40;;;;;;;;;;;;;;;12.14;100.00;98610.34;12201579;19;20347;-82
2023/10/24 18:13:42;;;;;;;11.93;5.03;;;;;;;12.05;100.00;98615.69;12203629;19;19935;-81
2023/10/24 18:17:44;;;;;;;8.80;5.63;;;;;;;11.96;100.00;98606.38;12177312;19;20078;-81
2023/10/24 18:21:48;;;;;;;11.02;5.97;;;;;;;11.86;100.00;98607.25;12204716;19;20007;-81
2023/10/24 18:25:51;;;;;;;9.88;5.30;;;;;;;11.78;100.00;98613.38;12208725;19;20002;-83
2023/10/24 18:29:55;;;;;;;10.27;5.18;;;;;;;11.71;100.00;98620.31;12183352;19;20007;-83
2023/10/24 18:33:56;;;;;;;10.73;5.25;;;;;;;11.63;100.00;98617.06;12206411;19;20014;-84